Time;durP1;ratioP1;P1;durP2;ratioP2;P2;SDS_P1;SDS_P2;PMS_P1;PMS_P2;Temp;Humidity;BMP_temperature;BMP_pressure;BME280_temperature;BME280_humidity;BME280_pressure;Samples;Min_cycle;Max_cycle;Signal;HPM_P1;HPM_P2
2021/01/24 00:01:42;;;;;;;10.63;3.33;;;;;;;;;;4966420;28;20054;-80
2021/01/24 00:04:08;;;;;;;15.60;5.72;;;;;;;;;;4970254;28;20039;-79
2021/01/24 00:06:34;;;;;;;18.73;5.70;;;;;;;;;;4987990;28;20022;-79
2021/01/24 00:09:00;;;;;;;15.45;5.57;;;;;;;;;;4980927;28;20035;-79
2021/01/24 00:11:26;;;;;;;16.50;6.25;;;;;;;;;;4977101;28;20019;-79
2021/01/24 00:13:52;;;;;;;14.63;6.00;;;;;;;;;;4969817;28;20038;-79
2021/01/24 00:16:18;;;;;;;15.55;7.15;;;;;;;;;;4972123;28;20023;-79
2021/01/24 00:18:44;;;;;;;19.63;7.88;;;;;;;;;;4972321;28;20568;-79
2021/01/24 00:21:10;;;;;;;29.77;8.40;;;;;;;;;;4959344;28;20026;-80
2021/01/24 00:23:36;;;;;;;21.15;8.68;;;;;;;;;;4971949;28;20027;-80
2021/01/24 00:26:02;;;;;;;21.35;8.77;;;;;;;;;;4972875;28;20042;-79
2021/01/24 00:28:28;;;;;;;21.45;8.50;;;;;;;;;;4971280;28;20400;-77
2021/01/24 00:30:54;;;;;;;30.17;8.68;;;;;;;;;;4960986;28;20027;-80
2021/01/24 00:33:21;;;;;;;25.50;8.52;;;;;;;;;;4966166;28;20023;-80
2021/01/24 00:35:47;;;;;;;21.13;6.95;;;;;;;;;;4967276;28;20033;-80
2021/01/24 00:38:13;;;;;;;22.95;6.50;;;;;;;;;;4974579;28;20117;-80
2021/01/24 00:40:39;;;;;;;15.40;5.43;;;;;;;;;;4970505;28;20089;-81
2021/01/24 00:43:05;;;;;;;15.25;5.15;;;;;;;;;;4973251;28;20022;-79
2021/01/24 00:45:31;;;;;;;19.33;5.70;;;;;;;;;;4972335;28;20031;-79
2021/01/24 00:47:57;;;;;;;19.92;5.82;;;;;;;;;;4973665;28;20029;-76
2021/01/24 00:50:23;;;;;;;24.08;6.80;;;;;;;;;;4968537;28;20090;-77
2021/01/24 00:52:49;;;;;;;20.23;4.43;;;;;;;;;;4969945;28;20019;-74
2021/01/24 00:55:16;;;;;;;13.48;3.05;;;;;;;;;;4969467;28;20552;-75
2021/01/24 00:57:42;;;;;;;14.38;2.75;;;;;;;;;;4969391;28;20109;-76
2021/01/24 01:00:08;;;;;;;8.23;3.58;;;;;;;;;;4971450;28;20121;-74
2021/01/24 01:02:34;;;;;;;11.68;2.95;;;;;;;;;;4972230;28;20051;-76
2021/01/24 01:05:00;;;;;;;18.80;3.88;;;;;;;;;;4969994;28;20094;-74
2021/01/24 01:07:26;;;;;;;12.32;3.60;;;;;;;;;;4971889;28;20027;-75
2021/01/24 01:09:52;;;;;;;18.38;3.20;;;;;;;;;;4972539;28;20033;-76
2021/01/24 01:12:19;;;;;;;11.07;4.03;;;;;;;;;;4969750;28;20019;-74
2021/01/24 01:14:45;;;;;;;18.27;5.28;;;;;;;;;;4972109;28;20038;-73
2021/01/24 01:17:11;;;;;;;28.35;7.03;;;;;;;;;;4972192;28;20081;-74
2021/01/24 01:19:37;;;;;;;21.90;6.93;;;;;;;;;;4972243;28;20476;-77
2021/01/24 01:22:03;;;;;;;21.15;5.57;;;;;;;;;;4973158;28;20026;-76
2021/01/24 01:24:29;;;;;;;19.10;5.47;;;;;;;;;;4973253;28;20038;-74
2021/01/24 01:26:55;;;;;;;22.45;6.63;;;;;;;;;;4971075;28;20033;-75
2021/01/24 01:29:21;;;;;;;13.55;4.70;;;;;;;;;;4968205;28;20094;-77
2021/01/24 01:31:47;;;;;;;15.02;4.35;;;;;;;;;;4972135;28;20110;-75
2021/01/24 01:34:13;;;;;;;26.80;6.88;;;;;;;;;;4971887;28;20030;-75
2021/01/24 01:36:39;;;;;;;17.58;5.70;;;;;;;;;;4972114;28;20030;-76
2021/01/24 01:39:05;;;;;;;27.52;6.57;;;;;;;;;;4972778;28;20109;-78
2021/01/24 01:41:32;;;;;;;19.52;6.15;;;;;;;;;;4968923;28;20058;-77
2021/01/24 01:43:59;;;;;;;16.27;6.40;;;;;;;;;;4966691;28;20031;-80
2021/01/24 01:46:26;;;;;;;18.67;6.00;;;;;;;;;;4968982;28;20089;-77
2021/01/24 01:48:53;;;;;;;23.77;5.63;;;;;;;;;;4972199;28;20027;-78
2021/01/24 01:51:19;;;;;;;21.90;5.30;;;;;;;;;;4965291;28;20098;-77
2021/01/24 01:53:45;;;;;;;21.42;6.50;;;;;;;;;;4983675;28;20034;-77
2021/01/24 01:56:12;;;;;;;16.67;5.32;;;;;;;;;;4970850;28;20042;-76
2021/01/24 01:58:38;;;;;;;14.48;5.28;;;;;;;;;;4970982;28;20096;-76
2021/01/24 02:01:05;;;;;;;22.45;6.20;;;;;;;;;;4970416;28;20031;-77
2021/01/24 02:03:52;;;;;;;16.13;4.95;;;;;;;;;;4968357;28;20483;-76
2021/01/24 02:06:27;;;;;;;25.58;5.63;;;;;;;;;;4969549;28;20031;-76
2021/01/24 02:09:00;;;;;;;13.38;5.07;;;;;;;;;;4970892;28;20559;-76
2021/01/24 02:11:32;;;;;;;17.05;5.70;;;;;;;;;;4964358;28;20031;-75
2021/01/24 02:13:58;;;;;;;17.58;6.50;;;;;;;;;;4971853;28;20072;-76
2021/01/24 02:16:26;;;;;;;23.17;6.05;;;;;;;;;;4973106;28;20027;-77
2021/01/24 02:18:53;;;;;;;13.18;5.13;;;;;;;;;;4971644;28;20045;-77
2021/01/24 02:21:40;;;;;;;20.33;5.18;;;;;;;;;;4967741;28;20044;-77
2021/01/24 02:24:09;;;;;;;13.07;4.20;;;;;;;;;;4980742;28;20062;-77
2021/01/24 02:26:35;;;;;;;17.80;5.25;;;;;;;;;;4969227;28;20041;-79
2021/01/24 02:29:04;;;;;;;17.67;5.60;;;;;;;;;;4972139;28;20412;-79
2021/01/24 02:31:31;;;;;;;16.67;5.05;;;;;;;;;;4968596;28;20078;-77
2021/01/24 02:33:57;;;;;;;18.48;5.20;;;;;;;;;;4970598;28;20037;-78
2021/01/24 02:36:24;;;;;;;20.17;5.35;;;;;;;;;;4973640;28;20027;-78
2021/01/24 02:38:51;;;;;;;19.60;5.63;;;;;;;;;;4971887;28;20058;-77
2021/01/24 02:41:17;;;;;;;13.23;4.10;;;;;;;;;;4969177;28;20045;-77
2021/01/24 02:43:44;;;;;;;15.70;3.30;;;;;;;;;;4969950;28;20085;-77
2021/01/24 02:46:11;;;;;;;15.63;3.47;;;;;;;;;;4971546;28;20039;-77
2021/01/24 02:48:37;;;;;;;7.97;1.67;;;;;;;;;;4972134;28;20034;-78
2021/01/24 02:51:03;;;;;;;10.52;2.35;;;;;;;;;;4966928;28;20066;-76
2021/01/24 02:53:30;;;;;;;12.65;1.85;;;;;;;;;;4970339;28;20019;-77
2021/01/24 02:55:57;;;;;;;8.57;1.63;;;;;;;;;;4970775;28;20016;-77
2021/01/24 02:58:23;;;;;;;5.65;1.20;;;;;;;;;;4967220;28;20028;-77
2021/01/24 03:00:49;;;;;;;8.32;1.38;;;;;;;;;;4974888;28;20106;-76
2021/01/24 03:03:15;;;;;;;14.57;4.05;;;;;;;;;;4961774;28;20050;-77
2021/01/24 03:05:41;;;;;;;8.30;1.58;;;;;;;;;;4974013;28;20026;-77
2021/01/24 03:08:07;;;;;;;6.50;1.50;;;;;;;;;;4983333;28;20081;-76
2021/01/24 03:10:33;;;;;;;5.32;1.10;;;;;;;;;;4970456;28;20030;-77
2021/01/24 03:13:09;;;;;;;7.38;1.15;;;;;;;;;;4968012;28;20027;-76
2021/01/24 03:15:36;;;;;;;8.90;1.58;;;;;;;;;;4969654;28;20041;-77
2021/01/24 03:18:03;;;;;;;8.30;1.52;;;;;;;;;;4975086;28;20062;-77
2021/01/24 03:20:33;;;;;;;12.90;1.85;;;;;;;;;;4970105;28;20130;-77
2021/01/24 03:23:01;;;;;;;8.85;1.40;;;;;;;;;;4967159;28;20031;-77
2021/01/24 03:25:28;;;;;;;10.98;1.75;;;;;;;;;;4970855;28;20058;-77
2021/01/24 03:27:54;;;;;;;10.95;1.85;;;;;;;;;;4963007;28;20041;-77
2021/01/24 03:30:20;;;;;;;12.88;2.28;;;;;;;;;;4970260;28;20101;-77
2021/01/24 03:32:46;;;;;;;11.32;1.85;;;;;;;;;;4971219;28;20033;-76
2021/01/24 03:35:12;;;;;;;13.38;2.25;;;;;;;;;;4969022;28;20170;-77
2021/01/24 03:37:38;;;;;;;11.43;2.47;;;;;;;;;;4966506;28;20050;-76
2021/01/24 03:40:05;;;;;;;15.18;2.58;;;;;;;;;;4970713;28;20415;-82
2021/01/24 03:42:31;;;;;;;10.75;3.60;;;;;;;;;;4962967;28;20381;-77
2021/01/24 03:44:57;;;;;;;16.33;5.30;;;;;;;;;;4969443;28;20404;-75
2021/01/24 03:47:23;;;;;;;15.95;5.25;;;;;;;;;;4969417;28;20503;-75
2021/01/24 03:49:49;;;;;;;18.67;5.78;;;;;;;;;;4970148;28;20042;-75
2021/01/24 03:52:15;;;;;;;13.35;4.60;;;;;;;;;;4972645;28;20041;-76
2021/01/24 03:54:41;;;;;;;16.08;4.53;;;;;;;;;;4974550;28;20081;-75
2021/01/24 03:57:07;;;;;;;9.93;3.72;;;;;;;;;;4973487;28;20082;-75
2021/01/24 03:59:33;;;;;;;20.90;6.75;;;;;;;;;;4973202;28;20019;-75
2021/01/24 04:01:59;;;;;;;24.95;7.13;;;;;;;;;;4972236;28;20051;-82
2021/01/24 04:04:26;;;;;;;22.27;5.82;;;;;;;;;;4973561;28;20035;-76
2021/01/24 04:06:52;;;;;;;28.00;7.38;;;;;;;;;;4966357;28;20031;-75
2021/01/24 04:09:18;;;;;;;19.70;7.45;;;;;;;;;;4972404;28;20074;-75
2021/01/24 04:11:44;;;;;;;19.88;7.50;;;;;;;;;;4972917;28;20091;-78
2021/01/24 04:14:10;;;;;;;23.70;7.32;;;;;;;;;;4973682;28;20035;-75
2021/01/24 04:16:36;;;;;;;29.70;8.88;;;;;;;;;;4969587;28;20026;-76
2021/01/24 04:19:02;;;;;;;20.25;6.50;;;;;;;;;;4973021;28;20026;-75
2021/01/24 04:21:29;;;;;;;20.77;5.38;;;;;;;;;;4970933;28;20023;-74
2021/01/24 04:23:55;;;;;;;25.52;8.00;;;;;;;;;;4973935;28;20069;-75
2021/01/24 04:26:21;;;;;;;29.08;7.32;;;;;;;;;;4967548;28;20039;-76
2021/01/24 04:28:47;;;;;;;17.67;5.13;;;;;;;;;;4970806;28;20047;-75
2021/01/24 04:31:13;;;;;;;20.00;5.10;;;;;;;;;;4972695;28;20042;-76
2021/01/24 04:33:39;;;;;;;19.55;6.53;;;;;;;;;;4973721;28;20026;-75
2021/01/24 04:36:06;;;;;;;22.20;6.00;;;;;;;;;;4975420;28;20396;-74
2021/01/24 04:38:32;;;;;;;18.15;5.55;;;;;;;;;;4988728;28;20054;-73
2021/01/24 04:40:58;;;;;;;16.92;6.82;;;;;;;;;;4983421;28;20049;-75
2021/01/24 04:43:24;;;;;;;18.65;5.40;;;;;;;;;;4973060;28;20074;-75
2021/01/24 04:45:50;;;;;;;21.02;6.55;;;;;;;;;;4971864;28;20026;-75
2021/01/24 04:48:17;;;;;;;17.67;5.38;;;;;;;;;;4973502;28;20027;-74
2021/01/24 04:50:43;;;;;;;17.50;6.53;;;;;;;;;;4974720;28;20035;-74
2021/01/24 04:53:09;;;;;;;14.40;4.60;;;;;;;;;;4971574;28;20475;-76
2021/01/24 04:55:36;;;;;;;15.60;4.88;;;;;;;;;;4972523;28;20015;-73
2021/01/24 04:58:02;;;;;;;18.77;4.80;;;;;;;;;;4969695;28;20034;-74
2021/01/24 05:00:28;;;;;;;17.00;5.25;;;;;;;;;;4968322;28;20026;-75
2021/01/24 05:02:54;;;;;;;18.17;6.03;;;;;;;;;;4971371;28;20531;-75
2021/01/24 05:05:21;;;;;;;17.27;5.43;;;;;;;;;;4975290;28;20027;-75
2021/01/24 05:07:47;;;;;;;18.58;6.05;;;;;;;;;;4971912;28;20034;-74
2021/01/24 05:10:15;;;;;;;23.92;5.57;;;;;;;;;;4970656;28;20088;-74
2021/01/24 05:12:45;;;;;;;13.02;3.58;;;;;;;;;;4972253;28;20023;-74
2021/01/24 05:15:11;;;;;;;15.00;4.53;;;;;;;;;;4970936;28;20030;-73
2021/01/24 05:17:49;;;;;;;22.60;5.68;;;;;;;;;;4971694;28;20023;-74
2021/01/24 05:20:15;;;;;;;15.55;4.13;;;;;;;;;;4967367;28;20027;-75
2021/01/24 05:22:41;;;;;;;15.88;4.28;;;;;;;;;;4972182;28;20046;-74
2021/01/24 05:25:08;;;;;;;20.35;4.30;;;;;;;;;;4971931;28;20268;-75
2021/01/24 05:27:34;;;;;;;15.55;4.47;;;;;;;;;;4972323;28;20030;-74
2021/01/24 05:30:00;;;;;;;19.50;4.32;;;;;;;;;;4971674;28;20031;-73
2021/01/24 05:32:26;;;;;;;17.02;3.55;;;;;;;;;;4970050;28;20077;-74
2021/01/24 05:34:52;;;;;;;15.10;3.92;;;;;;;;;;4970861;28;20077;-74
2021/01/24 05:37:18;;;;;;;13.90;4.18;;;;;;;;;;4970407;28;20022;-74
2021/01/24 05:39:44;;;;;;;14.95;3.17;;;;;;;;;;4972112;28;20018;-73
2021/01/24 05:42:12;;;;;;;14.20;3.03;;;;;;;;;;4969211;28;21059;-74
2021/01/24 05:44:39;;;;;;;15.68;3.35;;;;;;;;;;4972258;28;20077;-74
2021/01/24 05:47:05;;;;;;;18.27;3.72;;;;;;;;;;4971828;28;20026;-74
2021/01/24 05:49:33;;;;;;;21.70;4.75;;;;;;;;;;4970592;28;20027;-73
2021/01/24 05:52:00;;;;;;;10.13;3.72;;;;;;;;;;4968936;28;20077;-74
2021/01/24 05:54:39;;;;;;;14.77;3.65;;;;;;;;;;4962766;28;20068;-74
2021/01/24 05:57:05;;;;;;;12.20;3.85;;;;;;;;;;4970785;28;20093;-76
2021/01/24 05:59:47;;;;;;;14.45;3.92;;;;;;;;;;4972344;28;20048;-73
2021/01/24 06:02:13;;;;;;;;;;;;;;;;;;4963533;28;20499;-74
2021/01/24 06:04:40;;;;;;;17.17;4.07;;;;;;;;;;4971070;28;19989;-74
2021/01/24 06:07:07;;;;;;;16.25;4.00;;;;;;;;;;4968800;28;20039;-75
2021/01/24 06:09:33;;;;;;;13.18;4.22;;;;;;;;;;4972003;28;20042;-76
2021/01/24 06:12:01;;;;;;;12.45;4.07;;;;;;;;;;4968231;28;20073;-74
2021/01/24 06:14:27;;;;;;;21.33;4.00;;;;;;;;;;4970713;28;20077;-75
2021/01/24 06:16:53;;;;;;;14.38;4.18;;;;;;;;;;4963168;28;20027;-73
2021/01/24 06:19:20;;;;;;;18.45;4.63;;;;;;;;;;4967728;28;20026;-73
2021/01/24 06:21:51;;;;;;;12.20;4.18;;;;;;;;;;4966030;28;20054;-74
2021/01/24 06:24:23;;;;;;;16.38;4.22;;;;;;;;;;4971794;28;20059;-73
2021/01/24 06:26:52;;;;;;;8.57;3.30;;;;;;;;;;4969088;28;21163;-73
2021/01/24 06:29:19;;;;;;;11.73;3.72;;;;;;;;;;4970661;28;20030;-74
2021/01/24 06:31:49;;;;;;;12.95;4.10;;;;;;;;;;4969064;28;20035;-73
2021/01/24 06:34:15;;;;;;;13.30;3.88;;;;;;;;;;4970842;28;20019;-73
2021/01/24 06:37:00;;;;;;;14.75;4.25;;;;;;;;;;4970020;28;20085;-73
2021/01/24 06:39:31;;;;;;;11.43;4.63;;;;;;;;;;4963971;28;20037;-73
2021/01/24 06:41:57;;;;;;;20.52;4.65;;;;;;;;;;4967188;28;20023;-73
2021/01/24 06:44:36;;;;;;;22.48;4.65;;;;;;;;;;4971671;28;20031;-73
2021/01/24 06:47:06;;;;;;;12.50;3.70;;;;;;;;;;4969676;28;20030;-73
2021/01/24 06:49:39;;;;;;;19.27;4.72;;;;;;;;;;4986680;28;20027;-73
2021/01/24 06:52:15;;;;;;;23.23;4.35;;;;;;;;;;4970275;28;20030;-73
2021/01/24 06:54:41;;;;;;;15.05;5.18;;;;;;;;;;4970326;28;20516;-72
2021/01/24 06:57:08;;;;;;;14.48;3.85;;;;;;;;;;4968513;28;20396;-72
2021/01/24 06:59:34;;;;;;;11.10;4.15;;;;;;;;;;4970999;28;20097;-73
2021/01/24 07:02:19;;;;;;;13.25;4.60;;;;;;;;;;4966910;28;20112;-72
2021/01/24 07:05:04;;;;;;;16.92;4.38;;;;;;;;;;4969678;28;20031;-73
2021/01/24 07:07:30;;;;;;;11.45;4.05;;;;;;;;;;4970840;28;20081;-72
2021/01/24 07:09:57;;;;;;;21.45;4.85;;;;;;;;;;4970067;28;20035;-72
2021/01/24 07:12:33;;;;;;;11.55;3.78;;;;;;;;;;4969482;28;20030;-72
2021/01/24 07:14:59;;;;;;;12.68;4.07;;;;;;;;;;4969818;28;20411;-72
2021/01/24 07:17:26;;;;;;;17.33;3.85;;;;;;;;;;4971465;28;20027;-72
2021/01/24 07:19:52;;;;;;;14.18;4.05;;;;;;;;;;4970440;28;20108;-72
2021/01/24 07:22:22;;;;;;;12.38;3.67;;;;;;;;;;4969688;28;20520;-72
2021/01/24 07:24:49;;;;;;;14.80;3.78;;;;;;;;;;4970863;28;20023;-72
2021/01/24 07:27:16;;;;;;;19.80;5.32;;;;;;;;;;4972505;28;20235;-72
2021/01/24 07:29:43;;;;;;;13.60;3.75;;;;;;;;;;4975160;28;20027;-71
2021/01/24 07:32:10;;;;;;;12.82;3.92;;;;;;;;;;4974683;28;20124;-72
2021/01/24 07:34:36;;;;;;;20.52;4.30;;;;;;;;;;4973888;28;20027;-72
2021/01/24 07:37:03;;;;;;;14.23;3.70;;;;;;;;;;4974159;28;21132;-71
2021/01/24 07:39:30;;;;;;;11.40;3.60;;;;;;;;;;4972349;28;20035;-71
2021/01/24 07:41:56;;;;;;;14.07;3.90;;;;;;;;;;4968200;28;20031;-71
2021/01/24 07:44:22;;;;;;;13.70;3.80;;;;;;;;;;4967525;28;20118;-71
2021/01/24 07:46:48;;;;;;;8.77;3.25;;;;;;;;;;4983505;28;20101;-71
2021/01/24 07:49:15;;;;;;;17.05;4.20;;;;;;;;;;4990126;28;20302;-71
2021/01/24 07:51:42;;;;;;;10.90;3.83;;;;;;;;;;4977816;28;20019;-71
2021/01/24 07:54:08;;;;;;;16.75;4.22;;;;;;;;;;4980949;28;20023;-71
2021/01/24 07:56:36;;;;;;;15.23;3.92;;;;;;;;;;4978644;28;20260;-71
2021/01/24 07:59:02;;;;;;;16.27;4.43;;;;;;;;;;4966051;28;20030;-70
2021/01/24 08:01:28;;;;;;;14.43;4.22;;;;;;;;;;4977516;28;20051;-71
2021/01/24 08:03:54;;;;;;;13.10;3.60;;;;;;;;;;4975150;28;20062;-71
2021/01/24 08:06:20;;;;;;;13.13;3.95;;;;;;;;;;4981305;28;20606;-70
2021/01/24 08:08:47;;;;;;;19.73;5.35;;;;;;;;;;4974225;28;20061;-71
2021/01/24 08:11:14;;;;;;;16.17;3.55;;;;;;;;;;4969857;28;20560;-71
2021/01/24 08:13:41;;;;;;;10.75;4.03;;;;;;;;;;4982261;28;20014;-70
2021/01/24 08:16:12;;;;;;;13.93;3.80;;;;;;;;;;4977129;28;20062;-71
2021/01/24 08:18:40;;;;;;;13.77;3.53;;;;;;;;;;4974801;28;20062;-70
2021/01/24 08:21:06;;;;;;;12.38;3.72;;;;;;;;;;4969998;28;20031;-70
2021/01/24 08:23:32;;;;;;;11.38;3.30;;;;;;;;;;4974028;28;20021;-70
2021/01/24 08:25:59;;;;;;;15.65;3.42;;;;;;;;;;4969895;28;20093;-70
2021/01/24 08:28:26;;;;;;;8.95;3.65;;;;;;;;;;4968250;28;20043;-71
2021/01/24 08:30:52;;;;;;;12.50;3.03;;;;;;;;;;4966798;28;20523;-71
2021/01/24 08:33:19;;;;;;;14.80;3.78;;;;;;;;;;4968515;28;20257;-71
2021/01/24 08:35:48;;;;;;;13.50;3.47;;;;;;;;;;4970791;28;20027;-71
2021/01/24 08:38:14;;;;;;;23.70;5.15;;;;;;;;;;4969117;28;20066;-71
2021/01/24 08:40:41;;;;;;;13.00;3.42;;;;;;;;;;4973857;28;20405;-71
2021/01/24 08:43:07;;;;;;;10.75;3.17;;;;;;;;;;4967891;28;20058;-71
2021/01/24 08:45:34;;;;;;;14.88;4.63;;;;;;;;;;4966135;28;20044;-71
2021/01/24 08:48:04;;;;;;;8.15;3.78;;;;;;;;;;4971467;28;20047;-71
2021/01/24 08:50:34;;;;;;;11.88;3.38;;;;;;;;;;4982666;28;20501;-72
2021/01/24 08:53:02;;;;;;;11.93;4.65;;;;;;;;;;4967383;28;20034;-72
2021/01/24 08:55:28;;;;;;;11.45;3.00;;;;;;;;;;4972259;28;20106;-72
2021/01/24 08:57:55;;;;;;;9.98;3.03;;;;;;;;;;4962820;28;20031;-72
2021/01/24 09:00:22;;;;;;;10.52;2.80;;;;;;;;;;4969774;28;20027;-72
2021/01/24 09:02:48;;;;;;;7.97;3.03;;;;;;;;;;4969591;28;20074;-72
2021/01/24 09:05:16;;;;;;;11.68;3.15;;;;;;;;;;4961505;28;20030;-72
2021/01/24 09:07:42;;;;;;;12.82;2.88;;;;;;;;;;4971760;28;20037;-72
2021/01/24 09:10:18;;;;;;;9.23;2.97;;;;;;;;;;4974705;28;20038;-72
2021/01/24 09:12:48;;;;;;;11.10;3.08;;;;;;;;;;4968804;28;20034;-72
2021/01/24 09:15:15;;;;;;;9.50;3.33;;;;;;;;;;4980017;28;20026;-72
2021/01/24 09:17:41;;;;;;;15.38;3.38;;;;;;;;;;4973619;28;20027;-72
2021/01/24 09:20:08;;;;;;;8.90;3.13;;;;;;;;;;4972348;28;20026;-73
2021/01/24 09:22:35;;;;;;;11.93;3.08;;;;;;;;;;4959507;28;20043;-73
2021/01/24 09:25:01;;;;;;;7.82;2.75;;;;;;;;;;4982318;28;20130;-73
2021/01/24 09:27:27;;;;;;;9.23;3.00;;;;;;;;;;4972960;28;20035;-73
2021/01/24 09:29:53;;;;;;;10.55;2.88;;;;;;;;;;4977364;28;20129;-72
2021/01/24 09:32:19;;;;;;;18.38;4.07;;;;;;;;;;4975613;28;20109;-73
2021/01/24 09:34:45;;;;;;;9.80;2.80;;;;;;;;;;4972219;28;20019;-72
2021/01/24 09:37:11;;;;;;;11.73;3.72;;;;;;;;;;4971961;28;20018;-73
2021/01/24 09:39:37;;;;;;;9.98;3.95;;;;;;;;;;4980165;28;20077;-73
2021/01/24 09:42:04;;;;;;;15.18;4.07;;;;;;;;;;4970957;28;20038;-73
2021/01/24 09:44:30;;;;;;;10.02;4.63;;;;;;;;;;4970730;28;20022;-72
2021/01/24 09:46:56;;;;;;;8.93;3.90;;;;;;;;;;4985585;28;20046;-73
2021/01/24 09:49:22;;;;;;;11.40;4.50;;;;;;;;;;4970389;28;20081;-73
2021/01/24 09:51:48;;;;;;;11.88;4.18;;;;;;;;;;4967383;28;20031;-73
2021/01/24 09:54:17;;;;;;;16.98;5.22;;;;;;;;;;4969667;28;20031;-73
2021/01/24 09:56:43;;;;;;;13.52;4.97;;;;;;;;;;4969440;28;21076;-73
2021/01/24 09:59:11;;;;;;;12.55;5.28;;;;;;;;;;4972738;28;20113;-73
2021/01/24 10:01:37;;;;;;;14.98;4.47;;;;;;;;;;4976117;28;20054;-73
2021/01/24 10:04:03;;;;;;;10.60;4.13;;;;;;;;;;4974317;28;20062;-73
2021/01/24 10:06:29;;;;;;;7.95;3.92;;;;;;;;;;4975709;28;20051;-74
2021/01/24 10:08:56;;;;;;;8.25;3.75;;;;;;;;;;4985686;28;20101;-73
2021/01/24 10:11:23;;;;;;;9.07;3.63;;;;;;;;;;4972456;28;20035;-74
2021/01/24 10:13:49;;;;;;;10.57;3.45;;;;;;;;;;4964998;28;20105;-74
2021/01/24 10:16:15;;;;;;;9.52;4.28;;;;;;;;;;4967024;28;20024;-74
2021/01/24 10:18:41;;;;;;;7.03;3.50;;;;;;;;;;4970028;28;20476;-74
2021/01/24 10:21:08;;;;;;;8.55;3.35;;;;;;;;;;4974370;28;20035;-73
2021/01/24 10:23:34;;;;;;;9.05;3.08;;;;;;;;;;4982616;28;20476;-73
2021/01/24 10:26:00;;;;;;;8.88;3.47;;;;;;;;;;4966591;28;20047;-74
2021/01/24 10:28:27;;;;;;;11.45;3.20;;;;;;;;;;4971643;28;20112;-74
2021/01/24 10:30:53;;;;;;;10.93;3.75;;;;;;;;;;4968627;28;20027;-74
2021/01/24 10:33:20;;;;;;;16.10;5.35;;;;;;;;;;4971835;28;20022;-73
2021/01/24 10:35:46;;;;;;;11.35;4.13;;;;;;;;;;4970711;28;20038;-73
2021/01/24 10:38:12;;;;;;;16.23;6.68;;;;;;;;;;4970793;28;20031;-73
2021/01/24 10:40:38;;;;;;;14.73;7.20;;;;;;;;;;4966908;28;20315;-73
2021/01/24 10:43:05;;;;;;;15.68;7.47;;;;;;;;;;4977255;28;20038;-73
2021/01/24 10:45:31;;;;;;;14.13;6.60;;;;;;;;;;4972785;28;20950;-73
2021/01/24 10:47:58;;;;;;;13.70;6.88;;;;;;;;;;4972013;28;20041;-74
2021/01/24 10:50:25;;;;;;;19.42;7.20;;;;;;;;;;4966560;28;20019;-73
2021/01/24 10:52:51;;;;;;;18.05;7.93;;;;;;;;;;4964043;28;20023;-73
2021/01/24 10:55:17;;;;;;;18.58;8.43;;;;;;;;;;4964484;28;20033;-73
2021/01/24 10:57:43;;;;;;;8.38;3.33;;;;;;;;;;4963871;28;20015;-73
2021/01/24 11:00:09;;;;;;;16.27;8.82;;;;;;;;;;4960487;28;20112;-73
2021/01/24 11:02:36;;;;;;;19.23;8.90;;;;;;;;;;4973264;28;20039;-73
2021/01/24 11:05:02;;;;;;;21.65;7.20;;;;;;;;;;4974129;28;20046;-72
2021/01/24 11:07:28;;;;;;;17.98;8.00;;;;;;;;;;4974960;28;20027;-75
2021/01/24 11:09:55;;;;;;;20.13;7.20;;;;;;;;;;4968723;28;20043;-74
2021/01/24 11:12:22;;;;;;;16.65;7.80;;;;;;;;;;4970837;28;20030;-74
2021/01/24 11:14:48;;;;;;;22.65;9.23;;;;;;;;;;4971864;28;20042;-75
2021/01/24 11:17:14;;;;;;;18.05;9.00;;;;;;;;;;4970354;28;20289;-74
2021/01/24 11:19:41;;;;;;;17.58;8.63;;;;;;;;;;4973159;28;20489;-75
2021/01/24 11:22:07;;;;;;;17.50;9.38;;;;;;;;;;4962973;28;20125;-75
2021/01/24 11:24:33;;;;;;;14.80;7.57;;;;;;;;;;4976231;28;20027;-74
2021/01/24 11:26:59;;;;;;;18.92;9.77;;;;;;;;;;4981527;28;20080;-75
2021/01/24 11:29:25;;;;;;;20.02;9.90;;;;;;;;;;4987652;28;20035;-75
2021/01/24 11:31:51;;;;;;;21.48;9.43;;;;;;;;;;4967362;28;20023;-74
2021/01/24 11:34:18;;;;;;;18.95;9.90;;;;;;;;;;4972992;28;20515;-73
2021/01/24 11:36:44;;;;;;;19.42;9.27;;;;;;;;;;4972030;28;20023;-74
2021/01/24 11:39:10;;;;;;;22.23;10.10;;;;;;;;;;4986287;28;20118;-74
2021/01/24 11:41:36;;;;;;;20.80;9.07;;;;;;;;;;4968099;28;20027;-74
2021/01/24 11:44:02;;;;;;;22.13;9.70;;;;;;;;;;4981058;28;20030;-74
2021/01/24 11:46:28;;;;;;;19.50;9.07;;;;;;;;;;4971987;28;20027;-72
2021/01/24 11:48:54;;;;;;;15.70;8.48;;;;;;;;;;4988022;28;20054;-73
2021/01/24 11:51:20;;;;;;;18.58;8.73;;;;;;;;;;4967207;28;20112;-73
2021/01/24 11:53:46;;;;;;;17.00;7.55;;;;;;;;;;4974061;28;20081;-74
2021/01/24 11:56:12;;;;;;;15.50;8.05;;;;;;;;;;4980147;28;20093;-74
2021/01/24 11:58:38;;;;;;;17.70;7.10;;;;;;;;;;4979542;28;20034;-72
2021/01/24 12:01:04;;;;;;;20.73;8.30;;;;;;;;;;4971618;28;20027;-73
2021/01/24 12:03:31;;;;;;;8.80;3.45;;;;;;;;;;4984363;28;20026;-73
2021/01/24 12:05:57;;;;;;;16.52;7.20;;;;;;;;;;4977248;28;20499;-72
2021/01/24 12:08:23;;;;;;;16.92;7.18;;;;;;;;;;4973806;28;20011;-73
2021/01/24 12:10:49;;;;;;;14.45;7.25;;;;;;;;;;4970187;28;20501;-73
2021/01/24 12:13:15;;;;;;;18.92;7.75;;;;;;;;;;4971246;28;20011;-72
2021/01/24 12:15:41;;;;;;;19.40;8.80;;;;;;;;;;4977809;28;20093;-73
2021/01/24 12:18:07;;;;;;;20.50;8.27;;;;;;;;;;4974113;28;20038;-73
2021/01/24 12:20:33;;;;;;;16.08;6.97;;;;;;;;;;4969145;28;20419;-73
2021/01/24 12:23:00;;;;;;;13.60;5.63;;;;;;;;;;4996458;28;20038;-72
2021/01/24 12:25:26;;;;;;;16.42;6.43;;;;;;;;;;4972784;28;20023;-73
2021/01/24 12:27:52;;;;;;;12.98;5.93;;;;;;;;;;4986890;28;20035;-72
2021/01/24 12:30:18;;;;;;;15.60;7.07;;;;;;;;;;4966851;28;20027;-73
2021/01/24 12:32:44;;;;;;;16.63;7.03;;;;;;;;;;4970977;28;20499;-73
2021/01/24 12:35:11;;;;;;;14.10;6.53;;;;;;;;;;4972402;28;20027;-72
2021/01/24 12:37:37;;;;;;;12.00;4.65;;;;;;;;;;4979246;28;20027;-72
2021/01/24 12:40:04;;;;;;;16.38;7.47;;;;;;;;;;4975631;28;20114;-72
2021/01/24 12:42:30;;;;;;;17.58;6.72;;;;;;;;;;4984254;28;20031;-72
2021/01/24 12:44:56;;;;;;;16.40;7.60;;;;;;;;;;4971583;28;20035;-72
2021/01/24 12:47:22;;;;;;;18.48;8.73;;;;;;;;;;4978013;28;20078;-73
2021/01/24 12:49:48;;;;;;;15.18;7.13;;;;;;;;;;4978306;28;20269;-72
2021/01/24 12:52:15;;;;;;;22.50;10.20;;;;;;;;;;4970036;28;20037;-74
2021/01/24 12:54:41;;;;;;;18.23;9.05;;;;;;;;;;4990035;28;20026;-72
2021/01/24 12:57:07;;;;;;;17.60;8.68;;;;;;;;;;4971018;28;20027;-71
2021/01/24 12:59:33;;;;;;;18.10;8.27;;;;;;;;;;4981181;28;20100;-74
2021/01/24 13:02:03;;;;;;;17.08;9.45;;;;;;;;;;4975469;28;20055;-73
2021/01/24 13:04:30;;;;;;;15.25;7.95;;;;;;;;;;4977783;28;20022;-72
2021/01/24 13:06:56;;;;;;;15.25;6.15;;;;;;;;;;4979491;28;20058;-71
2021/01/24 13:09:22;;;;;;;19.92;9.48;;;;;;;;;;4978037;28;20102;-72
2021/01/24 13:11:48;;;;;;;16.75;7.85;;;;;;;;;;4977278;28;20026;-72
2021/01/24 13:14:14;;;;;;;30.88;10.25;;;;;;;;;;4979255;28;20039;-72
2021/01/24 13:16:40;;;;;;;19.80;7.10;;;;;;;;;;4977811;28;20026;-72
2021/01/24 13:19:06;;;;;;;18.20;9.57;;;;;;;;;;4976136;28;20042;-71
2021/01/24 13:21:32;;;;;;;21.75;7.95;;;;;;;;;;4975991;28;20026;-71
2021/01/24 13:23:58;;;;;;;18.15;8.45;;;;;;;;;;4979395;28;20030;-73
2021/01/24 13:26:24;;;;;;;12.90;6.15;;;;;;;;;;4978749;28;20154;-77
2021/01/24 13:28:50;;;;;;;18.25;7.85;;;;;;;;;;4981184;28;20319;-72
2021/01/24 13:31:19;;;;;;;17.52;8.40;;;;;;;;;;4969648;28;20023;-73
2021/01/24 13:33:45;;;;;;;14.43;5.60;;;;;;;;;;4985342;28;20039;-71
2021/01/24 13:36:11;;;;;;;13.00;6.60;;;;;;;;;;4976614;28;20085;-71
2021/01/24 13:38:37;;;;;;;15.02;7.25;;;;;;;;;;4974820;28;20551;-73
2021/01/24 13:41:03;;;;;;;14.32;7.45;;;;;;;;;;4967580;28;20027;-72
2021/01/24 13:43:29;;;;;;;15.07;7.10;;;;;;;;;;4979097;28;20460;-72
2021/01/24 13:45:55;;;;;;;19.88;9.15;;;;;;;;;;4980954;28;20089;-72
2021/01/24 13:48:21;;;;;;;23.73;9.70;;;;;;;;;;4978628;28;20050;-73
2021/01/24 13:50:47;;;;;;;16.75;8.02;;;;;;;;;;4977412;28;20026;-72
2021/01/24 13:53:13;;;;;;;15.63;8.23;;;;;;;;;;4980241;28;20023;-72
2021/01/24 13:55:39;;;;;;;20.05;9.27;;;;;;;;;;4979160;28;20027;-72
2021/01/24 13:58:05;;;;;;;16.33;7.15;;;;;;;;;;4978417;28;20026;-72
2021/01/24 14:00:31;;;;;;;16.42;7.32;;;;;;;;;;4976353;28;20242;-72
2021/01/24 14:02:57;;;;;;;15.52;6.60;;;;;;;;;;4975256;28;20439;-71
2021/01/24 14:05:24;;;;;;;12.10;5.40;;;;;;;;;;4977007;28;20039;-71
2021/01/24 14:07:50;;;;;;;18.20;7.88;;;;;;;;;;4995656;28;20062;-72
2021/01/24 14:10:16;;;;;;;18.13;6.75;;;;;;;;;;4975674;28;20029;-72
2021/01/24 14:12:42;;;;;;;13.98;5.28;;;;;;;;;;4975371;28;20041;-71
2021/01/24 14:15:08;;;;;;;14.02;7.30;;;;;;;;;;4968925;28;20045;-72
2021/01/24 14:17:36;;;;;;;17.17;6.78;;;;;;;;;;4969415;28;20623;-72
2021/01/24 14:20:02;;;;;;;17.95;7.10;;;;;;;;;;4968721;28;20038;-72
2021/01/24 14:22:28;;;;;;;17.70;6.60;;;;;;;;;;4968743;28;20038;-71
2021/01/24 14:24:54;;;;;;;18.60;5.47;;;;;;;;;;4967738;28;20035;-71
2021/01/24 14:27:20;;;;;;;19.40;7.20;;;;;;;;;;4970796;28;20039;-71
2021/01/24 14:29:46;;;;;;;15.95;6.22;;;;;;;;;;4970286;28;20046;-71